sensor_id;sensor_type;location;lat;lon;timestamp;P1;durP1;ratioP1;P2;durP2;ratioP2
18610;SDS011;9435;52.122;5.502;2022-10-13T00:02:22;26.27;;;13.65;;
18610;SDS011;9435;52.122;5.502;2022-10-13T00:04:49;30.83;;;13.98;;
18610;SDS011;9435;52.122;5.502;2022-10-13T00:07:16;26.08;;;13.57;;
18610;SDS011;9435;52.122;5.502;2022-10-13T00:09:43;27.20;;;14.00;;
18610;SDS011;9435;52.122;5.502;2022-10-13T00:12:11;29.98;;;14.52;;
18610;SDS011;9435;52.122;5.502;2022-10-13T00:14:38;31.85;;;14.85;;
18610;SDS011;9435;52.122;5.502;2022-10-13T00:17:05;31.50;;;15.27;;
18610;SDS011;9435;52.122;5.502;2022-10-13T00:19:32;30.70;;;15.05;;
18610;SDS011;9435;52.122;5.502;2022-10-13T00:21:59;30.67;;;14.93;;
18610;SDS011;9435;52.122;5.502;2022-10-13T00:24:26;31.38;;;13.80;;
18610;SDS011;9435;52.122;5.502;2022-10-13T00:26:53;28.38;;;14.35;;
18610;SDS011;9435;52.122;5.502;2022-10-13T00:29:21;30.88;;;13.77;;
18610;SDS011;9435;52.122;5.502;2022-10-13T00:31:48;26.77;;;13.52;;
18610;SDS011;9435;52.122;5.502;2022-10-13T00:34:15;27.88;;;13.80;;
18610;SDS011;9435;52.122;5.502;2022-10-13T00:36:42;26.92;;;13.70;;
18610;SDS011;9435;52.122;5.502;2022-10-13T00:39:09;26.15;;;14.13;;
18610;SDS011;9435;52.122;5.502;2022-10-13T00:41:36;24.45;;;13.38;;
18610;SDS011;9435;52.122;5.502;2022-10-13T00:44:03;30.35;;;13.90;;
18610;SDS011;9435;52.122;5.502;2022-10-13T00:46:34;27.02;;;13.98;;
18610;SDS011;9435;52.122;5.502;2022-10-13T00:49:03;31.67;;;14.43;;
18610;SDS011;9435;52.122;5.502;2022-10-13T00:51:34;26.20;;;13.75;;
18610;SDS011;9435;52.122;5.502;2022-10-13T00:54:05;30.17;;;14.10;;
18610;SDS011;9435;52.122;5.502;2022-10-13T00:56:35;26.15;;;13.38;;
18610;SDS011;9435;52.122;5.502;2022-10-13T00:59:04;28.38;;;13.45;;
18610;SDS011;9435;52.122;5.502;2022-10-13T01:01:48;25.23;;;13.13;;
18610;SDS011;9435;52.122;5.502;2022-10-13T01:04:15;29.95;;;14.35;;
18610;SDS011;9435;52.122;5.502;2022-10-13T01:06:46;28.45;;;14.10;;
18610;SDS011;9435;52.122;5.502;2022-10-13T01:09:14;28.73;;;14.00;;
18610;SDS011;9435;52.122;5.502;2022-10-13T01:11:44;26.50;;;13.68;;
18610;SDS011;9435;52.122;5.502;2022-10-13T01:14:22;25.90;;;13.30;;
18610;SDS011;9435;52.122;5.502;2022-10-13T01:16:57;25.13;;;13.43;;
18610;SDS011;9435;52.122;5.502;2022-10-13T01:19:38;26.52;;;13.43;;
18610;SDS011;9435;52.122;5.502;2022-10-13T01:22:20;26.85;;;13.80;;
18610;SDS011;9435;52.122;5.502;2022-10-13T01:25:07;28.50;;;14.18;;
18610;SDS011;9435;52.122;5.502;2022-10-13T01:27:58;29.23;;;14.30;;
18610;SDS011;9435;52.122;5.502;2022-10-13T01:30:43;25.45;;;14.00;;
18610;SDS011;9435;52.122;5.502;2022-10-13T01:33:16;26.23;;;14.20;;
18610;SDS011;9435;52.122;5.502;2022-10-13T01:35:54;26.02;;;13.98;;
18610;SDS011;9435;52.122;5.502;2022-10-13T01:38:32;26.35;;;13.70;;
18610;SDS011;9435;52.122;5.502;2022-10-13T01:41:07;28.50;;;13.98;;
18610;SDS011;9435;52.122;5.502;2022-10-13T01:43:39;28.88;;;13.98;;
18610;SDS011;9435;52.122;5.502;2022-10-13T01:46:12;27.08;;;14.73;;
18610;SDS011;9435;52.122;5.502;2022-10-13T01:48:43;27.08;;;13.30;;
18610;SDS011;9435;52.122;5.502;2022-10-13T01:51:12;28.88;;;14.38;;
18610;SDS011;9435;52.122;5.502;2022-10-13T01:53:41;26.45;;;14.45;;
18610;SDS011;9435;52.122;5.502;2022-10-13T01:56:10;28.30;;;14.55;;
18610;SDS011;9435;52.122;5.502;2022-10-13T01:58:37;29.75;;;13.80;;
18610;SDS011;9435;52.122;5.502;2022-10-13T02:01:08;32.63;;;14.63;;
18610;SDS011;9435;52.122;5.502;2022-10-13T02:03:55;29.40;;;14.18;;
18610;SDS011;9435;52.122;5.502;2022-10-13T02:06:29;26.70;;;14.40;;
18610;SDS011;9435;52.122;5.502;2022-10-13T02:09:01;27.42;;;14.00;;
18610;SDS011;9435;52.122;5.502;2022-10-13T02:11:33;25.65;;;13.75;;
18610;SDS011;9435;52.122;5.502;2022-10-13T02:14:02;27.65;;;13.68;;
18610;SDS011;9435;52.122;5.502;2022-10-13T02:16:37;28.65;;;14.30;;
18610;SDS011;9435;52.122;5.502;2022-10-13T02:19:06;29.02;;;14.25;;
18610;SDS011;9435;52.122;5.502;2022-10-13T02:21:36;32.40;;;14.60;;
18610;SDS011;9435;52.122;5.502;2022-10-13T02:24:05;30.30;;;13.98;;
18610;SDS011;9435;52.122;5.502;2022-10-13T02:26:33;28.52;;;14.35;;
18610;SDS011;9435;52.122;5.502;2022-10-13T02:29:06;26.45;;;14.25;;
18610;SDS011;9435;52.122;5.502;2022-10-13T02:31:34;27.27;;;14.00;;
18610;SDS011;9435;52.122;5.502;2022-10-13T02:34:03;26.17;;;13.48;;
18610;SDS011;9435;52.122;5.502;2022-10-13T02:36:30;30.00;;;14.70;;
18610;SDS011;9435;52.122;5.502;2022-10-13T02:38:57;26.48;;;14.13;;
18610;SDS011;9435;52.122;5.502;2022-10-13T02:41:24;24.63;;;13.75;;
18610;SDS011;9435;52.122;5.502;2022-10-13T02:43:52;27.60;;;13.57;;
18610;SDS011;9435;52.122;5.502;2022-10-13T02:46:19;28.98;;;13.57;;
18610;SDS011;9435;52.122;5.502;2022-10-13T02:48:47;26.48;;;13.30;;
18610;SDS011;9435;52.122;5.502;2022-10-13T02:51:14;27.95;;;14.45;;
18610;SDS011;9435;52.122;5.502;2022-10-13T02:53:41;24.30;;;13.40;;
18610;SDS011;9435;52.122;5.502;2022-10-13T02:56:08;26.02;;;13.80;;
18610;SDS011;9435;52.122;5.502;2022-10-13T02:58:35;27.55;;;13.60;;
18610;SDS011;9435;52.122;5.502;2022-10-13T03:01:06;28.42;;;13.85;;
18610;SDS011;9435;52.122;5.502;2022-10-13T03:03:34;30.73;;;14.80;;
18610;SDS011;9435;52.122;5.502;2022-10-13T03:06:02;30.95;;;14.77;;
18610;SDS011;9435;52.122;5.502;2022-10-13T03:08:30;25.75;;;14.73;;
18610;SDS011;9435;52.122;5.502;2022-10-13T03:10:58;33.50;;;16.00;;
18610;SDS011;9435;52.122;5.502;2022-10-13T03:13:25;30.45;;;15.32;;
18610;SDS011;9435;52.122;5.502;2022-10-13T03:15:52;27.15;;;14.25;;
18610;SDS011;9435;52.122;5.502;2022-10-13T03:18:19;26.55;;;14.48;;
18610;SDS011;9435;52.122;5.502;2022-10-13T03:20:53;26.25;;;14.07;;
18610;SDS011;9435;52.122;5.502;2022-10-13T03:23:23;29.60;;;14.35;;
18610;SDS011;9435;52.122;5.502;2022-10-13T03:25:50;28.15;;;15.48;;
18610;SDS011;9435;52.122;5.502;2022-10-13T03:28:17;31.08;;;15.10;;
18610;SDS011;9435;52.122;5.502;2022-10-13T03:30:44;31.17;;;14.75;;
18610;SDS011;9435;52.122;5.502;2022-10-13T03:33:12;33.67;;;15.32;;
18610;SDS011;9435;52.122;5.502;2022-10-13T03:35:39;25.98;;;14.45;;
18610;SDS011;9435;52.122;5.502;2022-10-13T03:38:06;32.53;;;15.07;;
18610;SDS011;9435;52.122;5.502;2022-10-13T03:40:35;26.67;;;14.35;;
18610;SDS011;9435;52.122;5.502;2022-10-13T03:43:02;28.00;;;14.52;;
18610;SDS011;9435;52.122;5.502;2022-10-13T03:45:29;26.15;;;14.43;;
18610;SDS011;9435;52.122;5.502;2022-10-13T03:47:56;27.05;;;14.88;;
18610;SDS011;9435;52.122;5.502;2022-10-13T03:50:23;27.02;;;14.73;;
18610;SDS011;9435;52.122;5.502;2022-10-13T03:52:50;25.65;;;14.05;;
18610;SDS011;9435;52.122;5.502;2022-10-13T03:55:17;30.98;;;15.07;;
18610;SDS011;9435;52.122;5.502;2022-10-13T03:57:46;28.98;;;15.32;;
18610;SDS011;9435;52.122;5.502;2022-10-13T04:00:13;30.23;;;15.23;;
18610;SDS011;9435;52.122;5.502;2022-10-13T04:02:41;28.38;;;14.68;;
18610;SDS011;9435;52.122;5.502;2022-10-13T04:05:08;27.77;;;14.38;;
18610;SDS011;9435;52.122;5.502;2022-10-13T04:07:35;27.08;;;14.38;;
18610;SDS011;9435;52.122;5.502;2022-10-13T04:10:02;28.20;;;15.07;;
18610;SDS011;9435;52.122;5.502;2022-10-13T04:12:29;32.10;;;15.40;;
18610;SDS011;9435;52.122;5.502;2022-10-13T04:14:58;27.23;;;15.13;;
18610;SDS011;9435;52.122;5.502;2022-10-13T04:17:25;31.33;;;15.32;;
18610;SDS011;9435;52.122;5.502;2022-10-13T04:19:52;29.23;;;15.15;;
18610;SDS011;9435;52.122;5.502;2022-10-13T04:22:19;28.17;;;14.80;;
18610;SDS011;9435;52.122;5.502;2022-10-13T04:24:45;27.60;;;14.77;;
18610;SDS011;9435;52.122;5.502;2022-10-13T04:27:12;33.65;;;15.60;;
18610;SDS011;9435;52.122;5.502;2022-10-13T04:29:40;31.25;;;15.80;;
18610;SDS011;9435;52.122;5.502;2022-10-13T04:32:09;35.60;;;15.55;;
18610;SDS011;9435;52.122;5.502;2022-10-13T04:34:36;27.73;;;15.77;;
18610;SDS011;9435;52.122;5.502;2022-10-13T04:37:03;31.10;;;16.38;;
18610;SDS011;9435;52.122;5.502;2022-10-13T04:39:30;31.17;;;16.38;;
18610;SDS011;9435;52.122;5.502;2022-10-13T04:41:57;30.25;;;16.02;;
18610;SDS011;9435;52.122;5.502;2022-10-13T04:44:24;27.00;;;14.73;;
18610;SDS011;9435;52.122;5.502;2022-10-13T04:46:51;32.17;;;16.27;;
18610;SDS011;9435;52.122;5.502;2022-10-13T04:49:19;31.80;;;16.00;;
18610;SDS011;9435;52.122;5.502;2022-10-13T04:51:46;31.10;;;15.75;;
18610;SDS011;9435;52.122;5.502;2022-10-13T04:54:13;31.77;;;15.95;;
18610;SDS011;9435;52.122;5.502;2022-10-13T04:56:42;31.98;;;15.93;;
18610;SDS011;9435;52.122;5.502;2022-10-13T04:59:09;32.17;;;16.00;;
18610;SDS011;9435;52.122;5.502;2022-10-13T05:01:36;30.15;;;15.90;;
18610;SDS011;9435;52.122;5.502;2022-10-13T05:04:03;31.67;;;16.77;;
18610;SDS011;9435;52.122;5.502;2022-10-13T05:06:32;31.60;;;16.25;;
18610;SDS011;9435;52.122;5.502;2022-10-13T05:09:01;30.33;;;15.35;;
18610;SDS011;9435;52.122;5.502;2022-10-13T05:11:29;29.88;;;15.55;;
18610;SDS011;9435;52.122;5.502;2022-10-13T05:13:56;27.48;;;16.00;;
18610;SDS011;9435;52.122;5.502;2022-10-13T05:16:24;26.70;;;15.23;;
18610;SDS011;9435;52.122;5.502;2022-10-13T05:18:52;31.40;;;16.58;;
18610;SDS011;9435;52.122;5.502;2022-10-13T05:21:20;34.35;;;16.52;;
18610;SDS011;9435;52.122;5.502;2022-10-13T05:23:50;30.67;;;16.05;;
18610;SDS011;9435;52.122;5.502;2022-10-13T05:26:20;33.70;;;15.77;;
18610;SDS011;9435;52.122;5.502;2022-10-13T05:28:52;33.30;;;16.90;;
18610;SDS011;9435;52.122;5.502;2022-10-13T05:31:19;33.72;;;16.40;;
18610;SDS011;9435;52.122;5.502;2022-10-13T05:33:47;31.55;;;16.60;;
18610;SDS011;9435;52.122;5.502;2022-10-13T05:36:16;30.52;;;15.70;;
18610;SDS011;9435;52.122;5.502;2022-10-13T05:38:49;36.63;;;20.05;;
18610;SDS011;9435;52.122;5.502;2022-10-13T05:41:17;31.85;;;17.30;;
18610;SDS011;9435;52.122;5.502;2022-10-13T05:43:45;36.22;;;16.02;;
18610;SDS011;9435;52.122;5.502;2022-10-13T05:46:13;35.45;;;16.63;;
18610;SDS011;9435;52.122;5.502;2022-10-13T05:48:40;35.97;;;16.85;;
18610;SDS011;9435;52.122;5.502;2022-10-13T05:51:09;36.63;;;16.80;;
18610;SDS011;9435;52.122;5.502;2022-10-13T05:53:39;32.20;;;17.55;;
18610;SDS011;9435;52.122;5.502;2022-10-13T05:56:11;33.20;;;17.08;;
18610;SDS011;9435;52.122;5.502;2022-10-13T05:58:41;37.38;;;18.08;;
18610;SDS011;9435;52.122;5.502;2022-10-13T06:01:12;37.28;;;17.65;;
18610;SDS011;9435;52.122;5.502;2022-10-13T06:03:42;38.38;;;17.52;;
18610;SDS011;9435;52.122;5.502;2022-10-13T06:06:11;37.60;;;17.63;;
18610;SDS011;9435;52.122;5.502;2022-10-13T06:08:38;31.05;;;16.50;;
18610;SDS011;9435;52.122;5.502;2022-10-13T06:11:06;38.78;;;18.38;;
18610;SDS011;9435;52.122;5.502;2022-10-13T06:13:35;40.47;;;17.83;;
18610;SDS011;9435;52.122;5.502;2022-10-13T06:16:02;33.38;;;17.77;;
18610;SDS011;9435;52.122;5.502;2022-10-13T06:18:29;37.90;;;17.13;;
18610;SDS011;9435;52.122;5.502;2022-10-13T06:20:56;32.25;;;16.60;;
18610;SDS011;9435;52.122;5.502;2022-10-13T06:23:23;35.78;;;17.13;;
18610;SDS011;9435;52.122;5.502;2022-10-13T06:25:51;35.75;;;17.75;;
18610;SDS011;9435;52.122;5.502;2022-10-13T06:28:19;37.55;;;18.25;;
18610;SDS011;9435;52.122;5.502;2022-10-13T06:30:48;42.10;;;17.60;;
18610;SDS011;9435;52.122;5.502;2022-10-13T06:33:20;37.17;;;17.30;;
18610;SDS011;9435;52.122;5.502;2022-10-13T06:35:48;39.13;;;18.17;;
18610;SDS011;9435;52.122;5.502;2022-10-13T06:38:15;43.03;;;19.95;;
18610;SDS011;9435;52.122;5.502;2022-10-13T06:40:42;35.47;;;18.10;;
18610;SDS011;9435;52.122;5.502;2022-10-13T06:43:09;39.67;;;18.75;;
18610;SDS011;9435;52.122;5.502;2022-10-13T06:45:36;40.22;;;18.65;;
18610;SDS011;9435;52.122;5.502;2022-10-13T06:48:05;43.70;;;18.58;;
18610;SDS011;9435;52.122;5.502;2022-10-13T06:50:32;36.13;;;18.65;;
18610;SDS011;9435;52.122;5.502;2022-10-13T06:52:59;37.50;;;18.90;;
18610;SDS011;9435;52.122;5.502;2022-10-13T06:55:26;35.30;;;17.75;;
18610;SDS011;9435;52.122;5.502;2022-10-13T06:57:53;38.55;;;18.73;;
18610;SDS011;9435;52.122;5.502;2022-10-13T07:00:20;38.88;;;18.77;;
18610;SDS011;9435;52.122;5.502;2022-10-13T07:02:48;39.47;;;19.55;;
18610;SDS011;9435;52.122;5.502;2022-10-13T07:05:18;38.20;;;19.60;;
18610;SDS011;9435;52.122;5.502;2022-10-13T07:07:45;42.10;;;20.40;;
18610;SDS011;9435;52.122;5.502;2022-10-13T07:10:12;41.72;;;20.25;;
18610;SDS011;9435;52.122;5.502;2022-10-13T07:12:39;43.03;;;20.17;;
18610;SDS011;9435;52.122;5.502;2022-10-13T07:15:06;39.38;;;20.25;;
18610;SDS011;9435;52.122;5.502;2022-10-13T07:17:34;40.42;;;20.52;;
18610;SDS011;9435;52.122;5.502;2022-10-13T07:20:01;38.03;;;19.40;;
18610;SDS011;9435;52.122;5.502;2022-10-13T07:22:30;37.58;;;19.13;;
18610;SDS011;9435;52.122;5.502;2022-10-13T07:24:57;43.10;;;21.25;;
18610;SDS011;9435;52.122;5.502;2022-10-13T07:27:24;46.65;;;21.38;;
18610;SDS011;9435;52.122;5.502;2022-10-13T07:29:52;45.00;;;21.13;;
18610;SDS011;9435;52.122;5.502;2022-10-13T07:32:20;47.47;;;22.08;;
18610;SDS011;9435;52.122;5.502;2022-10-13T07:34:47;45.15;;;20.65;;
18610;SDS011;9435;52.122;5.502;2022-10-13T07:37:16;48.40;;;21.92;;
18610;SDS011;9435;52.122;5.502;2022-10-13T07:39:45;46.05;;;21.55;;
18610;SDS011;9435;52.122;5.502;2022-10-13T07:42:12;40.55;;;20.85;;
18610;SDS011;9435;52.122;5.502;2022-10-13T07:44:38;43.58;;;21.58;;
18610;SDS011;9435;52.122;5.502;2022-10-13T07:47:05;47.17;;;22.00;;
18610;SDS011;9435;52.122;5.502;2022-10-13T07:49:32;50.55;;;22.75;;
18610;SDS011;9435;52.122;5.502;2022-10-13T07:51:59;51.17;;;22.65;;
18610;SDS011;9435;52.122;5.502;2022-10-13T07:54:27;46.47;;;21.90;;
18610;SDS011;9435;52.122;5.502;2022-10-13T07:56:55;48.50;;;23.83;;
18610;SDS011;9435;52.122;5.502;2022-10-13T07:59:22;52.15;;;24.83;;
18610;SDS011;9435;52.122;5.502;2022-10-13T08:01:50;50.35;;;25.70;;
18610;SDS011;9435;52.122;5.502;2022-10-13T08:04:17;55.85;;;25.60;;
18610;SDS011;9435;52.122;5.502;2022-10-13T08:06:43;52.67;;;25.23;;
18610;SDS011;9435;52.122;5.502;2022-10-13T08:09:10;52.55;;;25.20;;
18610;SDS011;9435;52.122;5.502;2022-10-13T08:11:37;52.28;;;25.92;;
18610;SDS011;9435;52.122;5.502;2022-10-13T08:14:06;53.47;;;26.45;;
18610;SDS011;9435;52.122;5.502;2022-10-13T08:16:33;55.13;;;27.05;;
18610;SDS011;9435;52.122;5.502;2022-10-13T08:19:00;54.20;;;26.73;;
18610;SDS011;9435;52.122;5.502;2022-10-13T08:21:27;55.42;;;27.48;;
18610;SDS011;9435;52.122;5.502;2022-10-13T08:23:54;58.85;;;27.80;;
18610;SDS011;9435;52.122;5.502;2022-10-13T08:26:22;61.67;;;29.60;;
18610;SDS011;9435;52.122;5.502;2022-10-13T08:28:51;55.97;;;29.58;;
18610;SDS011;9435;52.122;5.502;2022-10-13T08:31:19;62.05;;;29.27;;
18610;SDS011;9435;52.122;5.502;2022-10-13T08:33:46;59.00;;;30.00;;
18610;SDS011;9435;52.122;5.502;2022-10-13T08:36:13;56.70;;;30.05;;
18610;SDS011;9435;52.122;5.502;2022-10-13T08:38:41;57.72;;;29.88;;
18610;SDS011;9435;52.122;5.502;2022-10-13T08:41:18;61.35;;;30.17;;
18610;SDS011;9435;52.122;5.502;2022-10-13T08:43:48;59.75;;;28.60;;
18610;SDS011;9435;52.122;5.502;2022-10-13T08:46:18;55.28;;;28.48;;
18610;SDS011;9435;52.122;5.502;2022-10-13T08:48:50;50.17;;;27.10;;
18610;SDS011;9435;52.122;5.502;2022-10-13T08:51:17;53.33;;;27.98;;
18610;SDS011;9435;52.122;5.502;2022-10-13T08:53:45;51.47;;;26.90;;
18610;SDS011;9435;52.122;5.502;2022-10-13T08:56:14;58.78;;;26.77;;
18610;SDS011;9435;52.122;5.502;2022-10-13T08:58:45;46.83;;;25.65;;
18610;SDS011;9435;52.122;5.502;2022-10-13T09:01:14;46.42;;;25.45;;
18610;SDS011;9435;52.122;5.502;2022-10-13T09:03:46;49.15;;;25.25;;
18610;SDS011;9435;52.122;5.502;2022-10-13T09:06:16;48.38;;;24.52;;
18610;SDS011;9435;52.122;5.502;2022-10-13T09:08:51;41.40;;;23.35;;
18610;SDS011;9435;52.122;5.502;2022-10-13T09:11:21;43.90;;;22.42;;
18610;SDS011;9435;52.122;5.502;2022-10-13T09:13:52;38.47;;;21.13;;
18610;SDS011;9435;52.122;5.502;2022-10-13T09:16:24;38.35;;;20.65;;
18610;SDS011;9435;52.122;5.502;2022-10-13T09:19:11;38.83;;;21.30;;
18610;SDS011;9435;52.122;5.502;2022-10-13T09:21:40;40.60;;;22.35;;
18610;SDS011;9435;52.122;5.502;2022-10-13T09:24:10;36.90;;;20.60;;
18610;SDS011;9435;52.122;5.502;2022-10-13T09:26:40;36.95;;;20.17;;
18610;SDS011;9435;52.122;5.502;2022-10-13T09:29:08;42.25;;;19.77;;
18610;SDS011;9435;52.122;5.502;2022-10-13T09:31:36;40.38;;;18.98;;
18610;SDS011;9435;52.122;5.502;2022-10-13T09:34:08;32.85;;;18.25;;
18610;SDS011;9435;52.122;5.502;2022-10-13T09:36:53;34.50;;;18.02;;
18610;SDS011;9435;52.122;5.502;2022-10-13T09:39:25;31.20;;;17.13;;
18610;SDS011;9435;52.122;5.502;2022-10-13T09:41:52;36.83;;;18.48;;
18610;SDS011;9435;52.122;5.502;2022-10-13T09:44:42;33.00;;;17.95;;
18610;SDS011;9435;52.122;5.502;2022-10-13T09:47:15;29.88;;;17.23;;
18610;SDS011;9435;52.122;5.502;2022-10-13T09:49:56;36.10;;;18.08;;
18610;SDS011;9435;52.122;5.502;2022-10-13T09:52:26;31.60;;;17.33;;
18610;SDS011;9435;52.122;5.502;2022-10-13T09:54:55;35.13;;;17.25;;
18610;SDS011;9435;52.122;5.502;2022-10-13T09:57:27;32.20;;;17.17;;
18610;SDS011;9435;52.122;5.502;2022-10-13T10:00:06;28.35;;;15.77;;
18610;SDS011;9435;52.122;5.502;2022-10-13T10:02:40;28.52;;;15.90;;
18610;SDS011;9435;52.122;5.502;2022-10-13T10:05:17;28.98;;;15.80;;
18610;SDS011;9435;52.122;5.502;2022-10-13T10:07:50;28.50;;;14.85;;
18610;SDS011;9435;52.122;5.502;2022-10-13T10:10:24;31.02;;;15.10;;
18610;SDS011;9435;52.122;5.502;2022-10-13T10:12:57;31.52;;;15.20;;
18610;SDS011;9435;52.122;5.502;2022-10-13T10:15:28;29.30;;;14.85;;
18610;SDS011;9435;52.122;5.502;2022-10-13T10:17:59;30.67;;;15.10;;
18610;SDS011;9435;52.122;5.502;2022-10-13T10:20:40;29.58;;;15.85;;
18610;SDS011;9435;52.122;5.502;2022-10-13T10:23:17;28.65;;;14.10;;
18610;SDS011;9435;52.122;5.502;2022-10-13T10:25:52;24.60;;;13.25;;
18610;SDS011;9435;52.122;5.502;2022-10-13T10:28:36;25.48;;;14.05;;
18610;SDS011;9435;52.122;5.502;2022-10-13T10:31:15;29.83;;;13.50;;
18610;SDS011;9435;52.122;5.502;2022-10-13T10:33:53;28.05;;;12.88;;
18610;SDS011;9435;52.122;5.502;2022-10-13T10:36:30;27.20;;;13.88;;
18610;SDS011;9435;52.122;5.502;2022-10-13T10:39:07;30.40;;;14.32;;
18610;SDS011;9435;52.122;5.502;2022-10-13T10:41:44;26.83;;;12.95;;
18610;SDS011;9435;52.122;5.502;2022-10-13T10:44:18;28.50;;;14.25;;
18610;SDS011;9435;52.122;5.502;2022-10-13T10:46:47;25.83;;;13.30;;
18610;SDS011;9435;52.122;5.502;2022-10-13T10:49:16;25.73;;;13.52;;
18610;SDS011;9435;52.122;5.502;2022-10-13T10:51:48;27.50;;;13.35;;
18610;SDS011;9435;52.122;5.502;2022-10-13T10:54:18;21.48;;;12.30;;
18610;SDS011;9435;52.122;5.502;2022-10-13T10:56:52;27.58;;;13.18;;
18610;SDS011;9435;52.122;5.502;2022-10-13T10:59:30;20.17;;;11.75;;
18610;SDS011;9435;52.122;5.502;2022-10-13T11:02:13;27.25;;;13.73;;
18610;SDS011;9435;52.122;5.502;2022-10-13T11:04:51;27.80;;;13.88;;
18610;SDS011;9435;52.122;5.502;2022-10-13T11:10:27;27.40;;;13.45;;
18610;SDS011;9435;52.122;5.502;2022-10-13T11:15:46;24.33;;;12.95;;
18610;SDS011;9435;52.122;5.502;2022-10-13T11:21:17;28.05;;;14.18;;
18610;SDS011;9435;52.122;5.502;2022-10-13T11:23:45;29.30;;;14.32;;
18610;SDS011;9435;52.122;5.502;2022-10-13T11:29:14;31.60;;;15.52;;
18610;SDS011;9435;52.122;5.502;2022-10-13T11:31:46;28.02;;;14.85;;
18610;SDS011;9435;52.122;5.502;2022-10-13T11:34:24;26.50;;;14.38;;
18610;SDS011;9435;52.122;5.502;2022-10-13T11:36:54;29.10;;;15.43;;
18610;SDS011;9435;52.122;5.502;2022-10-13T11:39:31;26.92;;;14.85;;
18610;SDS011;9435;52.122;5.502;2022-10-13T11:42:20;28.63;;;15.05;;
18610;SDS011;9435;52.122;5.502;2022-10-13T11:45:10;31.58;;;15.95;;
18610;SDS011;9435;52.122;5.502;2022-10-13T11:47:49;29.92;;;16.10;;
18610;SDS011;9435;52.122;5.502;2022-10-13T11:50:34;33.40;;;17.40;;
18610;SDS011;9435;52.122;5.502;2022-10-13T11:53:15;31.05;;;15.65;;
18610;SDS011;9435;52.122;5.502;2022-10-13T11:55:44;29.80;;;15.32;;
18610;SDS011;9435;52.122;5.502;2022-10-13T11:58:17;28.50;;;14.70;;
18610;SDS011;9435;52.122;5.502;2022-10-13T12:00:53;23.80;;;14.02;;
18610;SDS011;9435;52.122;5.502;2022-10-13T12:03:24;29.92;;;13.80;;
18610;SDS011;9435;52.122;5.502;2022-10-13T12:05:54;25.45;;;12.77;;
18610;SDS011;9435;52.122;5.502;2022-10-13T12:08:23;28.60;;;13.77;;
18610;SDS011;9435;52.122;5.502;2022-10-13T12:10:52;27.08;;;13.85;;
18610;SDS011;9435;52.122;5.502;2022-10-13T12:13:25;25.92;;;14.00;;
18610;SDS011;9435;52.122;5.502;2022-10-13T12:15:57;33.22;;;14.60;;
18610;SDS011;9435;52.122;5.502;2022-10-13T12:18:28;28.10;;;14.15;;
18610;SDS011;9435;52.122;5.502;2022-10-13T12:20:59;25.83;;;14.23;;
18610;SDS011;9435;52.122;5.502;2022-10-13T12:23:28;27.02;;;14.73;;
18610;SDS011;9435;52.122;5.502;2022-10-13T12:25:57;28.83;;;14.10;;
18610;SDS011;9435;52.122;5.502;2022-10-13T12:28:27;32.65;;;15.48;;
18610;SDS011;9435;52.122;5.502;2022-10-13T12:30:56;27.20;;;14.57;;
18610;SDS011;9435;52.122;5.502;2022-10-13T12:33:28;28.83;;;15.02;;
18610;SDS011;9435;52.122;5.502;2022-10-13T12:38:42;26.85;;;15.68;;
18610;SDS011;9435;52.122;5.502;2022-10-13T12:41:14;27.10;;;14.82;;
18610;SDS011;9435;52.122;5.502;2022-10-13T12:43:44;33.50;;;19.50;;
18610;SDS011;9435;52.122;5.502;2022-10-13T12:46:11;29.65;;;15.13;;
18610;SDS011;9435;52.122;5.502;2022-10-13T12:49:02;27.38;;;14.00;;
18610;SDS011;9435;52.122;5.502;2022-10-13T12:51:30;26.38;;;14.57;;
18610;SDS011;9435;52.122;5.502;2022-10-13T12:53:58;27.48;;;15.77;;
18610;SDS011;9435;52.122;5.502;2022-10-13T12:56:26;26.65;;;14.85;;
18610;SDS011;9435;52.122;5.502;2022-10-13T12:58:56;27.75;;;15.70;;
18610;SDS011;9435;52.122;5.502;2022-10-13T13:01:28;30.35;;;16.25;;
18610;SDS011;9435;52.122;5.502;2022-10-13T13:03:58;29.10;;;15.13;;
18610;SDS011;9435;52.122;5.502;2022-10-13T13:06:30;26.20;;;15.30;;
18610;SDS011;9435;52.122;5.502;2022-10-13T13:09:06;29.17;;;15.48;;
18610;SDS011;9435;52.122;5.502;2022-10-13T13:14:49;32.20;;;16.70;;
18610;SDS011;9435;52.122;5.502;2022-10-13T13:17:23;29.38;;;15.38;;
18610;SDS011;9435;52.122;5.502;2022-10-13T13:19:52;30.02;;;15.65;;
18610;SDS011;9435;52.122;5.502;2022-10-13T13:22:21;33.83;;;17.30;;
18610;SDS011;9435;52.122;5.502;2022-10-13T13:24:48;30.75;;;16.58;;
18610;SDS011;9435;52.122;5.502;2022-10-13T13:27:17;28.38;;;16.88;;
18610;SDS011;9435;52.122;5.502;2022-10-13T13:30:00;29.55;;;15.93;;
18610;SDS011;9435;52.122;5.502;2022-10-13T13:32:27;29.67;;;16.67;;
18610;SDS011;9435;52.122;5.502;2022-10-13T13:34:55;32.78;;;17.15;;
18610;SDS011;9435;52.122;5.502;2022-10-13T13:37:23;36.55;;;16.73;;
18610;SDS011;9435;52.122;5.502;2022-10-13T13:39:53;31.33;;;17.02;;
18610;SDS011;9435;52.122;5.502;2022-10-13T13:42:20;33.25;;;17.20;;
18610;SDS011;9435;52.122;5.502;2022-10-13T13:44:47;32.35;;;17.13;;
18610;SDS011;9435;52.122;5.502;2022-10-13T13:47:16;27.88;;;15.88;;
18610;SDS011;9435;52.122;5.502;2022-10-13T13:49:45;34.53;;;16.95;;
18610;SDS011;9435;52.122;5.502;2022-10-13T13:52:13;32.92;;;17.27;;
18610;SDS011;9435;52.122;5.502;2022-10-13T13:54:40;31.35;;;16.50;;
18610;SDS011;9435;52.122;5.502;2022-10-13T13:57:08;36.17;;;17.40;;
18610;SDS011;9435;52.122;5.502;2022-10-13T13:59:36;29.27;;;16.85;;
18610;SDS011;9435;52.122;5.502;2022-10-13T14:02:03;33.20;;;17.02;;
18610;SDS011;9435;52.122;5.502;2022-10-13T14:04:32;31.10;;;15.98;;
18610;SDS011;9435;52.122;5.502;2022-10-13T14:06:59;32.50;;;17.35;;
18610;SDS011;9435;52.122;5.502;2022-10-13T14:09:26;30.58;;;16.52;;
18610;SDS011;9435;52.122;5.502;2022-10-13T14:11:53;31.35;;;16.90;;
18610;SDS011;9435;52.122;5.502;2022-10-13T14:14:20;28.30;;;16.08;;
18610;SDS011;9435;52.122;5.502;2022-10-13T14:16:47;30.90;;;16.60;;
18610;SDS011;9435;52.122;5.502;2022-10-13T14:19:14;29.80;;;16.88;;
18610;SDS011;9435;52.122;5.502;2022-10-13T14:21:43;31.00;;;16.55;;
18610;SDS011;9435;52.122;5.502;2022-10-13T14:24:10;31.90;;;17.13;;
18610;SDS011;9435;52.122;5.502;2022-10-13T14:26:37;30.35;;;16.88;;
18610;SDS011;9435;52.122;5.502;2022-10-13T14:29:04;34.08;;;18.20;;
18610;SDS011;9435;52.122;5.502;2022-10-13T14:31:31;28.42;;;17.00;;
18610;SDS011;9435;52.122;5.502;2022-10-13T14:33:58;30.48;;;17.10;;
18610;SDS011;9435;52.122;5.502;2022-10-13T14:36:25;33.45;;;17.50;;
18610;SDS011;9435;52.122;5.502;2022-10-13T14:38:53;33.55;;;16.95;;
18610;SDS011;9435;52.122;5.502;2022-10-13T14:41:21;28.25;;;16.80;;
18610;SDS011;9435;52.122;5.502;2022-10-13T14:43:50;26.27;;;16.85;;
18610;SDS011;9435;52.122;5.502;2022-10-13T14:46:18;31.48;;;16.92;;
18610;SDS011;9435;52.122;5.502;2022-10-13T14:48:46;29.83;;;16.17;;
18610;SDS011;9435;52.122;5.502;2022-10-13T14:51:13;30.17;;;16.48;;
18610;SDS011;9435;52.122;5.502;2022-10-13T14:53:41;33.10;;;17.80;;
18610;SDS011;9435;52.122;5.502;2022-10-13T14:56:18;26.60;;;16.50;;
18610;SDS011;9435;52.122;5.502;2022-10-13T14:58:47;24.73;;;15.68;;
18610;SDS011;9435;52.122;5.502;2022-10-13T15:01:15;30.85;;;17.63;;
18610;SDS011;9435;52.122;5.502;2022-10-13T15:03:43;27.70;;;16.65;;
18610;SDS011;9435;52.122;5.502;2022-10-13T15:06:12;30.08;;;16.20;;
18610;SDS011;9435;52.122;5.502;2022-10-13T15:08:39;32.33;;;17.30;;